sensor_id;sensor_type;location;lat;lon;timestamp;P1;durP1;ratioP1;P2;durP2;ratioP2
54328;SDS011;40710;51.120;13.136;2023-01-19T00:00:08;25.52;;;24.87;;
54328;SDS011;40710;51.120;13.136;2023-01-19T00:02:33;25.30;;;24.72;;
54328;SDS011;40710;51.120;13.136;2023-01-19T00:04:58;25.03;;;24.45;;
54328;SDS011;40710;51.120;13.136;2023-01-19T00:07:22;24.38;;;23.81;;
54328;SDS011;40710;51.120;13.136;2023-01-19T00:09:47;24.05;;;23.42;;
54328;SDS011;40710;51.120;13.136;2023-01-19T00:12:12;24.22;;;23.74;;
54328;SDS011;40710;51.120;13.136;2023-01-19T00:14:36;24.04;;;23.26;;
54328;SDS011;40710;51.120;13.136;2023-01-19T00:17:01;23.97;;;23.34;;
54328;SDS011;40710;51.120;13.136;2023-01-19T00:19:26;23.05;;;22.50;;
54328;SDS011;40710;51.120;13.136;2023-01-19T00:21:51;22.76;;;22.20;;
54328;SDS011;40710;51.120;13.136;2023-01-19T00:24:15;22.79;;;22.08;;
54328;SDS011;40710;51.120;13.136;2023-01-19T00:26:40;22.80;;;22.08;;
54328;SDS011;40710;51.120;13.136;2023-01-19T00:29:06;23.19;;;22.55;;
54328;SDS011;40710;51.120;13.136;2023-01-19T00:31:33;23.33;;;22.56;;
54328;SDS011;40710;51.120;13.136;2023-01-19T00:33:59;21.64;;;21.21;;
54328;SDS011;40710;51.120;13.136;2023-01-19T00:36:23;22.48;;;21.90;;
54328;SDS011;40710;51.120;13.136;2023-01-19T00:38:48;22.61;;;22.06;;
54328;SDS011;40710;51.120;13.136;2023-01-19T00:41:13;22.52;;;21.96;;
54328;SDS011;40710;51.120;13.136;2023-01-19T00:43:38;22.17;;;21.53;;
54328;SDS011;40710;51.120;13.136;2023-01-19T00:46:02;21.19;;;20.77;;
54328;SDS011;40710;51.120;13.136;2023-01-19T00:48:27;22.45;;;21.78;;
54328;SDS011;40710;51.120;13.136;2023-01-19T00:50:51;21.82;;;21.31;;
54328;SDS011;40710;51.120;13.136;2023-01-19T00:53:16;21.57;;;21.15;;
54328;SDS011;40710;51.120;13.136;2023-01-19T00:55:40;20.95;;;20.64;;
54328;SDS011;40710;51.120;13.136;2023-01-19T00:58:05;20.46;;;20.06;;
54328;SDS011;40710;51.120;13.136;2023-01-19T01:00:30;19.93;;;19.44;;
54328;SDS011;40710;51.120;13.136;2023-01-19T01:02:55;20.39;;;19.80;;
54328;SDS011;40710;51.120;13.136;2023-01-19T01:05:19;20.59;;;20.05;;
54328;SDS011;40710;51.120;13.136;2023-01-19T01:07:44;20.18;;;19.66;;
54328;SDS011;40710;51.120;13.136;2023-01-19T01:10:11;19.43;;;19.02;;
54328;SDS011;40710;51.120;13.136;2023-01-19T01:12:41;19.96;;;19.43;;
54328;SDS011;40710;51.120;13.136;2023-01-19T01:15:07;19.61;;;19.18;;
54328;SDS011;40710;51.120;13.136;2023-01-19T01:17:34;20.31;;;19.63;;
54328;SDS011;40710;51.120;13.136;2023-01-19T01:19:59;19.22;;;18.69;;
54328;SDS011;40710;51.120;13.136;2023-01-19T01:22:24;18.88;;;18.38;;
54328;SDS011;40710;51.120;13.136;2023-01-19T01:24:48;19.22;;;18.82;;
54328;SDS011;40710;51.120;13.136;2023-01-19T01:27:13;19.26;;;18.80;;
54328;SDS011;40710;51.120;13.136;2023-01-19T01:29:38;19.26;;;18.85;;
54328;SDS011;40710;51.120;13.136;2023-01-19T01:32:04;19.01;;;18.57;;
54328;SDS011;40710;51.120;13.136;2023-01-19T01:34:28;19.16;;;18.65;;
54328;SDS011;40710;51.120;13.136;2023-01-19T01:36:53;19.11;;;18.65;;
54328;SDS011;40710;51.120;13.136;2023-01-19T01:39:18;19.11;;;18.61;;
54328;SDS011;40710;51.120;13.136;2023-01-19T01:41:43;18.91;;;18.27;;
54328;SDS011;40710;51.120;13.136;2023-01-19T01:49:58;18.09;;;17.68;;
54328;SDS011;40710;51.120;13.136;2023-01-19T01:52:40;17.93;;;17.40;;
54328;SDS011;40710;51.120;13.136;2023-01-19T01:55:12;17.69;;;17.21;;
54328;SDS011;40710;51.120;13.136;2023-01-19T01:57:40;17.85;;;17.35;;
54328;SDS011;40710;51.120;13.136;2023-01-19T02:00:10;18.08;;;17.66;;
54328;SDS011;40710;51.120;13.136;2023-01-19T02:02:37;18.17;;;17.72;;
54328;SDS011;40710;51.120;13.136;2023-01-19T02:05:15;18.21;;;17.70;;
54328;SDS011;40710;51.120;13.136;2023-01-19T02:10:57;17.31;;;16.96;;
54328;SDS011;40710;51.120;13.136;2023-01-19T02:13:43;18.08;;;17.60;;
54328;SDS011;40710;51.120;13.136;2023-01-19T02:16:10;17.86;;;17.31;;
54328;SDS011;40710;51.120;13.136;2023-01-19T02:18:36;17.47;;;17.06;;
54328;SDS011;40710;51.120;13.136;2023-01-19T02:21:08;17.24;;;16.75;;
54328;SDS011;40710;51.120;13.136;2023-01-19T02:23:45;17.34;;;16.99;;
54328;SDS011;40710;51.120;13.136;2023-01-19T02:26:12;17.15;;;16.78;;
54328;SDS011;40710;51.120;13.136;2023-01-19T02:28:44;16.60;;;16.28;;
54328;SDS011;40710;51.120;13.136;2023-01-19T02:31:14;16.16;;;15.63;;
54328;SDS011;40710;51.120;13.136;2023-01-19T02:33:38;15.87;;;15.49;;
54328;SDS011;40710;51.120;13.136;2023-01-19T02:36:03;15.93;;;15.57;;
54328;SDS011;40710;51.120;13.136;2023-01-19T02:38:31;15.33;;;15.05;;
54328;SDS011;40710;51.120;13.136;2023-01-19T02:40:56;15.36;;;15.05;;
54328;SDS011;40710;51.120;13.136;2023-01-19T02:43:24;14.86;;;14.54;;
54328;SDS011;40710;51.120;13.136;2023-01-19T02:45:51;15.41;;;15.01;;
54328;SDS011;40710;51.120;13.136;2023-01-19T02:48:17;15.70;;;15.23;;
54328;SDS011;40710;51.120;13.136;2023-01-19T02:50:44;15.22;;;14.77;;
54328;SDS011;40710;51.120;13.136;2023-01-19T02:53:23;15.27;;;14.89;;
54328;SDS011;40710;51.120;13.136;2023-01-19T02:56:11;14.25;;;13.99;;
54328;SDS011;40710;51.120;13.136;2023-01-19T03:12:49;13.64;;;13.33;;
54328;SDS011;40710;51.120;13.136;2023-01-19T03:15:29;13.46;;;13.22;;
54328;SDS011;40710;51.120;13.136;2023-01-19T03:18:08;13.13;;;12.84;;
54328;SDS011;40710;51.120;13.136;2023-01-19T03:20:37;13.22;;;12.86;;
54328;SDS011;40710;51.120;13.136;2023-01-19T03:23:04;13.46;;;13.07;;
54328;SDS011;40710;51.120;13.136;2023-01-19T03:25:34;13.37;;;13.04;;
54328;SDS011;40710;51.120;13.136;2023-01-19T03:28:04;13.47;;;13.08;;
54328;SDS011;40710;51.120;13.136;2023-01-19T03:30:31;13.55;;;13.18;;
54328;SDS011;40710;51.120;13.136;2023-01-19T03:33:06;13.79;;;13.50;;
54328;SDS011;40710;51.120;13.136;2023-01-19T03:35:38;13.77;;;13.37;;
54328;SDS011;40710;51.120;13.136;2023-01-19T03:38:09;13.63;;;13.31;;
54328;SDS011;40710;51.120;13.136;2023-01-19T03:40:39;13.11;;;12.92;;
54328;SDS011;40710;51.120;13.136;2023-01-19T03:43:05;13.47;;;13.14;;
54328;SDS011;40710;51.120;13.136;2023-01-19T03:45:30;14.31;;;14.01;;
54328;SDS011;40710;51.120;13.136;2023-01-19T03:47:59;13.28;;;13.08;;
54328;SDS011;40710;51.120;13.136;2023-01-19T03:50:26;13.36;;;13.13;;
54328;SDS011;40710;51.120;13.136;2023-01-19T03:53:05;13.45;;;13.13;;
54328;SDS011;40710;51.120;13.136;2023-01-19T03:55:34;13.37;;;12.96;;
54328;SDS011;40710;51.120;13.136;2023-01-19T03:58:00;12.99;;;12.64;;
54328;SDS011;40710;51.120;13.136;2023-01-19T04:00:25;12.96;;;12.65;;
54328;SDS011;40710;51.120;13.136;2023-01-19T04:02:49;12.76;;;12.50;;
54328;SDS011;40710;51.120;13.136;2023-01-19T04:05:14;13.37;;;13.04;;
54328;SDS011;40710;51.120;13.136;2023-01-19T04:07:39;13.68;;;13.23;;
54328;SDS011;40710;51.120;13.136;2023-01-19T04:10:03;13.44;;;13.10;;
54328;SDS011;40710;51.120;13.136;2023-01-19T04:12:28;13.27;;;13.01;;
54328;SDS011;40710;51.120;13.136;2023-01-19T04:14:53;15.46;;;14.96;;
54328;SDS011;40710;51.120;13.136;2023-01-19T04:17:17;15.54;;;15.19;;
54328;SDS011;40710;51.120;13.136;2023-01-19T04:19:42;13.85;;;13.43;;
54328;SDS011;40710;51.120;13.136;2023-01-19T04:22:08;13.72;;;13.39;;
54328;SDS011;40710;51.120;13.136;2023-01-19T04:24:32;48.77;;;46.19;;
54328;SDS011;40710;51.120;13.136;2023-01-19T04:26:57;29.78;;;28.13;;
54328;SDS011;40710;51.120;13.136;2023-01-19T04:29:22;13.89;;;13.47;;
54328;SDS011;40710;51.120;13.136;2023-01-19T04:31:47;13.62;;;13.26;;
54328;SDS011;40710;51.120;13.136;2023-01-19T04:34:12;13.78;;;13.44;;
54328;SDS011;40710;51.120;13.136;2023-01-19T04:36:36;13.35;;;12.99;;
54328;SDS011;40710;51.120;13.136;2023-01-19T04:39:01;13.91;;;13.57;;
54328;SDS011;40710;51.120;13.136;2023-01-19T04:41:25;13.12;;;12.79;;
54328;SDS011;40710;51.120;13.136;2023-01-19T04:43:50;13.69;;;13.29;;
54328;SDS011;40710;51.120;13.136;2023-01-19T04:46:14;12.70;;;12.37;;
54328;SDS011;40710;51.120;13.136;2023-01-19T04:48:39;13.04;;;12.72;;
54328;SDS011;40710;51.120;13.136;2023-01-19T04:51:04;12.73;;;12.41;;
54328;SDS011;40710;51.120;13.136;2023-01-19T04:53:28;13.63;;;13.26;;
54328;SDS011;40710;51.120;13.136;2023-01-19T04:55:53;13.19;;;12.90;;
54328;SDS011;40710;51.120;13.136;2023-01-19T04:58:18;13.24;;;12.94;;
54328;SDS011;40710;51.120;13.136;2023-01-19T05:00:43;13.46;;;13.18;;
54328;SDS011;40710;51.120;13.136;2023-01-19T05:03:07;12.96;;;12.65;;
54328;SDS011;40710;51.120;13.136;2023-01-19T05:05:32;13.35;;;12.99;;
54328;SDS011;40710;51.120;13.136;2023-01-19T05:07:56;13.90;;;13.55;;
54328;SDS011;40710;51.120;13.136;2023-01-19T05:10:21;14.03;;;13.54;;
54328;SDS011;40710;51.120;13.136;2023-01-19T05:12:47;14.22;;;13.88;;
54328;SDS011;40710;51.120;13.136;2023-01-19T05:15:11;13.95;;;13.65;;
54328;SDS011;40710;51.120;13.136;2023-01-19T05:17:36;14.79;;;14.33;;
54328;SDS011;40710;51.120;13.136;2023-01-19T05:20:00;14.98;;;14.59;;
54328;SDS011;40710;51.120;13.136;2023-01-19T05:22:25;14.58;;;14.08;;
54328;SDS011;40710;51.120;13.136;2023-01-19T05:24:49;13.84;;;13.45;;
54328;SDS011;40710;51.120;13.136;2023-01-19T05:27:14;13.68;;;13.22;;
54328;SDS011;40710;51.120;13.136;2023-01-19T05:29:38;13.72;;;13.26;;
54328;SDS011;40710;51.120;13.136;2023-01-19T05:32:03;14.51;;;14.12;;
54328;SDS011;40710;51.120;13.136;2023-01-19T05:34:28;13.58;;;13.30;;
54328;SDS011;40710;51.120;13.136;2023-01-19T05:36:52;13.35;;;13.07;;
54328;SDS011;40710;51.120;13.136;2023-01-19T05:39:17;13.53;;;13.18;;
54328;SDS011;40710;51.120;13.136;2023-01-19T05:41:41;13.83;;;13.44;;
54328;SDS011;40710;51.120;13.136;2023-01-19T05:44:08;13.56;;;13.16;;
54328;SDS011;40710;51.120;13.136;2023-01-19T05:46:33;13.26;;;12.89;;
54328;SDS011;40710;51.120;13.136;2023-01-19T05:48:57;14.07;;;13.63;;
54328;SDS011;40710;51.120;13.136;2023-01-19T05:51:24;14.24;;;13.94;;
54328;SDS011;40710;51.120;13.136;2023-01-19T05:53:49;16.45;;;16.08;;
54328;SDS011;40710;51.120;13.136;2023-01-19T05:56:13;17.95;;;17.54;;
54328;SDS011;40710;51.120;13.136;2023-01-19T05:58:38;16.02;;;15.60;;
54328;SDS011;40710;51.120;13.136;2023-01-19T06:01:03;14.61;;;14.17;;
54328;SDS011;40710;51.120;13.136;2023-01-19T06:03:31;13.83;;;13.51;;
54328;SDS011;40710;51.120;13.136;2023-01-19T06:05:57;14.11;;;13.63;;
54328;SDS011;40710;51.120;13.136;2023-01-19T06:08:22;13.40;;;13.01;;
54328;SDS011;40710;51.120;13.136;2023-01-19T06:10:46;13.32;;;12.99;;
54328;SDS011;40710;51.120;13.136;2023-01-19T06:13:11;13.63;;;13.17;;
54328;SDS011;40710;51.120;13.136;2023-01-19T06:15:35;13.91;;;13.40;;
54328;SDS011;40710;51.120;13.136;2023-01-19T06:18:00;13.92;;;13.58;;
54328;SDS011;40710;51.120;13.136;2023-01-19T06:20:25;13.44;;;13.09;;
54328;SDS011;40710;51.120;13.136;2023-01-19T06:22:49;13.56;;;13.26;;
54328;SDS011;40710;51.120;13.136;2023-01-19T06:25:14;14.26;;;13.97;;
54328;SDS011;40710;51.120;13.136;2023-01-19T06:27:42;15.30;;;15.00;;
54328;SDS011;40710;51.120;13.136;2023-01-19T06:30:07;14.09;;;13.73;;
54328;SDS011;40710;51.120;13.136;2023-01-19T06:32:32;13.72;;;13.40;;
54328;SDS011;40710;51.120;13.136;2023-01-19T06:34:56;13.77;;;13.52;;
54328;SDS011;40710;51.120;13.136;2023-01-19T06:37:21;13.89;;;13.52;;
54328;SDS011;40710;51.120;13.136;2023-01-19T06:39:45;13.42;;;13.10;;
54328;SDS011;40710;51.120;13.136;2023-01-19T06:42:10;13.61;;;13.25;;
54328;SDS011;40710;51.120;13.136;2023-01-19T06:44:34;16.63;;;16.33;;
54328;SDS011;40710;51.120;13.136;2023-01-19T06:46:59;14.12;;;13.73;;
54328;SDS011;40710;51.120;13.136;2023-01-19T06:49:23;15.12;;;14.68;;
54328;SDS011;40710;51.120;13.136;2023-01-19T06:51:48;15.50;;;15.09;;
54328;SDS011;40710;51.120;13.136;2023-01-19T06:54:13;14.65;;;14.26;;
54328;SDS011;40710;51.120;13.136;2023-01-19T06:56:37;15.41;;;14.98;;
54328;SDS011;40710;51.120;13.136;2023-01-19T06:59:02;15.53;;;15.14;;
54328;SDS011;40710;51.120;13.136;2023-01-19T07:01:26;15.39;;;14.99;;
54328;SDS011;40710;51.120;13.136;2023-01-19T07:03:51;14.61;;;14.22;;
54328;SDS011;40710;51.120;13.136;2023-01-19T07:06:16;14.97;;;14.56;;
54328;SDS011;40710;51.120;13.136;2023-01-19T07:08:40;15.31;;;15.00;;
54328;SDS011;40710;51.120;13.136;2023-01-19T07:11:06;15.43;;;15.01;;
54328;SDS011;40710;51.120;13.136;2023-01-19T07:13:33;17.00;;;16.50;;
54328;SDS011;40710;51.120;13.136;2023-01-19T07:16:17;16.60;;;16.24;;
54328;SDS011;40710;51.120;13.136;2023-01-19T07:18:42;16.71;;;16.38;;
54328;SDS011;40710;51.120;13.136;2023-01-19T07:21:06;17.73;;;17.41;;
54328;SDS011;40710;51.120;13.136;2023-01-19T07:23:32;16.83;;;16.46;;
54328;SDS011;40710;51.120;13.136;2023-01-19T07:25:57;16.62;;;16.23;;
54328;SDS011;40710;51.120;13.136;2023-01-19T07:28:24;16.51;;;16.01;;
54328;SDS011;40710;51.120;13.136;2023-01-19T07:30:52;15.75;;;15.31;;
54328;SDS011;40710;51.120;13.136;2023-01-19T07:33:17;16.52;;;16.13;;
54328;SDS011;40710;51.120;13.136;2023-01-19T07:35:46;15.88;;;15.56;;
54328;SDS011;40710;51.120;13.136;2023-01-19T07:38:11;16.45;;;16.12;;
54328;SDS011;40710;51.120;13.136;2023-01-19T07:40:36;17.53;;;17.03;;
54328;SDS011;40710;51.120;13.136;2023-01-19T07:43:01;16.02;;;15.59;;
54328;SDS011;40710;51.120;13.136;2023-01-19T07:45:25;15.15;;;14.74;;
54328;SDS011;40710;51.120;13.136;2023-01-19T07:47:50;15.67;;;15.16;;
54328;SDS011;40710;51.120;13.136;2023-01-19T07:50:15;15.57;;;15.28;;
54328;SDS011;40710;51.120;13.136;2023-01-19T07:52:41;16.47;;;16.11;;
54328;SDS011;40710;51.120;13.136;2023-01-19T07:55:06;16.92;;;16.45;;
54328;SDS011;40710;51.120;13.136;2023-01-19T07:57:31;16.31;;;16.00;;
54328;SDS011;40710;51.120;13.136;2023-01-19T07:59:56;16.47;;;16.06;;
54328;SDS011;40710;51.120;13.136;2023-01-19T08:02:21;16.15;;;15.68;;
54328;SDS011;40710;51.120;13.136;2023-01-19T08:04:48;15.42;;;15.11;;
54328;SDS011;40710;51.120;13.136;2023-01-19T08:07:13;14.68;;;14.40;;
54328;SDS011;40710;51.120;13.136;2023-01-19T08:09:38;15.19;;;14.83;;
54328;SDS011;40710;51.120;13.136;2023-01-19T08:12:02;14.82;;;14.33;;
54328;SDS011;40710;51.120;13.136;2023-01-19T08:14:27;14.20;;;13.84;;
54328;SDS011;40710;51.120;13.136;2023-01-19T08:16:51;13.63;;;13.30;;
54328;SDS011;40710;51.120;13.136;2023-01-19T08:19:16;13.20;;;12.92;;
54328;SDS011;40710;51.120;13.136;2023-01-19T08:21:42;13.21;;;12.90;;
54328;SDS011;40710;51.120;13.136;2023-01-19T08:24:09;13.17;;;12.94;;
54328;SDS011;40710;51.120;13.136;2023-01-19T08:26:42;12.96;;;12.62;;
54328;SDS011;40710;51.120;13.136;2023-01-19T08:29:06;13.60;;;13.28;;
54328;SDS011;40710;51.120;13.136;2023-01-19T08:31:31;13.22;;;12.98;;
54328;SDS011;40710;51.120;13.136;2023-01-19T08:33:55;13.31;;;13.08;;
54328;SDS011;40710;51.120;13.136;2023-01-19T08:36:20;12.92;;;12.66;;
54328;SDS011;40710;51.120;13.136;2023-01-19T08:38:46;12.83;;;12.54;;
54328;SDS011;40710;51.120;13.136;2023-01-19T08:41:11;12.76;;;12.48;;
54328;SDS011;40710;51.120;13.136;2023-01-19T08:43:36;12.59;;;12.23;;
54328;SDS011;40710;51.120;13.136;2023-01-19T08:46:01;12.96;;;12.62;;
54328;SDS011;40710;51.120;13.136;2023-01-19T08:48:26;13.14;;;12.81;;
54328;SDS011;40710;51.120;13.136;2023-01-19T08:50:51;12.74;;;12.61;;
54328;SDS011;40710;51.120;13.136;2023-01-19T08:53:16;12.46;;;12.35;;
54328;SDS011;40710;51.120;13.136;2023-01-19T08:55:42;12.38;;;12.14;;
54328;SDS011;40710;51.120;13.136;2023-01-19T08:58:07;12.38;;;12.07;;
54328;SDS011;40710;51.120;13.136;2023-01-19T09:00:32;12.95;;;12.67;;
54328;SDS011;40710;51.120;13.136;2023-01-19T09:02:57;12.44;;;12.17;;
54328;SDS011;40710;51.120;13.136;2023-01-19T09:05:22;13.13;;;12.83;;
54328;SDS011;40710;51.120;13.136;2023-01-19T09:07:47;12.92;;;12.73;;
54328;SDS011;40710;51.120;13.136;2023-01-19T09:10:11;12.53;;;12.28;;
54328;SDS011;40710;51.120;13.136;2023-01-19T09:12:36;12.92;;;12.74;;
54328;SDS011;40710;51.120;13.136;2023-01-19T09:15:00;12.65;;;12.34;;
54328;SDS011;40710;51.120;13.136;2023-01-19T09:17:25;13.94;;;13.64;;
54328;SDS011;40710;51.120;13.136;2023-01-19T09:19:49;13.16;;;12.91;;
54328;SDS011;40710;51.120;13.136;2023-01-19T09:22:14;13.02;;;12.98;;
54328;SDS011;40710;51.120;13.136;2023-01-19T09:24:38;13.41;;;13.22;;
54328;SDS011;40710;51.120;13.136;2023-01-19T09:27:03;13.47;;;13.20;;
54328;SDS011;40710;51.120;13.136;2023-01-19T09:29:27;13.09;;;12.68;;
54328;SDS011;40710;51.120;13.136;2023-01-19T09:31:52;13.11;;;12.76;;
54328;SDS011;40710;51.120;13.136;2023-01-19T09:34:16;13.15;;;12.90;;
54328;SDS011;40710;51.120;13.136;2023-01-19T09:36:41;12.57;;;12.52;;
54328;SDS011;40710;51.120;13.136;2023-01-19T09:39:05;12.94;;;12.59;;
54328;SDS011;40710;51.120;13.136;2023-01-19T09:41:30;12.61;;;12.35;;
54328;SDS011;40710;51.120;13.136;2023-01-19T09:43:59;12.71;;;12.45;;
54328;SDS011;40710;51.120;13.136;2023-01-19T09:46:26;12.48;;;12.24;;
54328;SDS011;40710;51.120;13.136;2023-01-19T09:48:58;12.09;;;11.94;;
54328;SDS011;40710;51.120;13.136;2023-01-19T09:51:30;12.74;;;12.46;;
54328;SDS011;40710;51.120;13.136;2023-01-19T09:54:07;12.41;;;12.32;;
54328;SDS011;40710;51.120;13.136;2023-01-19T09:56:37;12.28;;;12.09;;
54328;SDS011;40710;51.120;13.136;2023-01-19T09:59:04;12.48;;;12.23;;
54328;SDS011;40710;51.120;13.136;2023-01-19T10:01:47;12.92;;;12.67;;
54328;SDS011;40710;51.120;13.136;2023-01-19T10:04:29;13.69;;;13.48;;
54328;SDS011;40710;51.120;13.136;2023-01-19T10:07:38;13.88;;;13.81;;
54328;SDS011;40710;51.120;13.136;2023-01-19T10:09:55;13.34;;;13.14;;
54328;SDS011;40710;51.120;13.136;2023-01-19T10:12:38;12.87;;;12.55;;
54328;SDS011;40710;51.120;13.136;2023-01-19T10:15:23;12.61;;;12.54;;
54328;SDS011;40710;51.120;13.136;2023-01-19T10:20:50;12.31;;;12.09;;
54328;SDS011;40710;51.120;13.136;2023-01-19T10:23:42;12.83;;;12.74;;
54328;SDS011;40710;51.120;13.136;2023-01-19T10:26:14;12.75;;;12.52;;
54328;SDS011;40710;51.120;13.136;2023-01-19T10:28:41;12.39;;;12.09;;
54328;SDS011;40710;51.120;13.136;2023-01-19T10:31:08;12.60;;;12.45;;
54328;SDS011;40710;51.120;13.136;2023-01-19T10:33:35;12.34;;;12.31;;
54328;SDS011;40710;51.120;13.136;2023-01-19T10:36:05;12.23;;;12.18;;
54328;SDS011;40710;51.120;13.136;2023-01-19T10:38:39;12.69;;;12.49;;
54328;SDS011;40710;51.120;13.136;2023-01-19T10:41:06;12.26;;;12.23;;
54328;SDS011;40710;51.120;13.136;2023-01-19T10:43:41;13.07;;;12.98;;
54328;SDS011;40710;51.120;13.136;2023-01-19T10:46:15;13.43;;;13.07;;
54328;SDS011;40710;51.120;13.136;2023-01-19T10:48:50;13.89;;;13.57;;
54328;SDS011;40710;51.120;13.136;2023-01-19T10:51:17;15.55;;;15.29;;
54328;SDS011;40710;51.120;13.136;2023-01-19T10:53:51;13.96;;;13.72;;
54328;SDS011;40710;51.120;13.136;2023-01-19T10:56:23;12.81;;;12.61;;
54328;SDS011;40710;51.120;13.136;2023-01-19T10:59:02;12.01;;;11.92;;
54328;SDS011;40710;51.120;13.136;2023-01-19T11:01:29;12.85;;;12.81;;
54328;SDS011;40710;51.120;13.136;2023-01-19T11:03:58;13.43;;;13.21;;
54328;SDS011;40710;51.120;13.136;2023-01-19T11:06:28;13.13;;;12.95;;
54328;SDS011;40710;51.120;13.136;2023-01-19T11:09:11;13.08;;;12.96;;
54328;SDS011;40710;51.120;13.136;2023-01-19T11:11:51;13.52;;;13.36;;
54328;SDS011;40710;51.120;13.136;2023-01-19T11:14:18;13.34;;;13.34;;
54328;SDS011;40710;51.120;13.136;2023-01-19T11:16:52;13.27;;;13.01;;
54328;SDS011;40710;51.120;13.136;2023-01-19T11:19:26;13.38;;;12.94;;
54328;SDS011;40710;51.120;13.136;2023-01-19T11:25:02;13.18;;;12.97;;
54328;SDS011;40710;51.120;13.136;2023-01-19T11:27:28;13.16;;;12.98;;
54328;SDS011;40710;51.120;13.136;2023-01-19T11:29:59;14.01;;;13.77;;
54328;SDS011;40710;51.120;13.136;2023-01-19T11:32:43;13.86;;;13.65;;
54328;SDS011;40710;51.120;13.136;2023-01-19T11:38:08;15.01;;;14.88;;
54328;SDS011;40710;51.120;13.136;2023-01-19T11:40:40;14.10;;;13.98;;
54328;SDS011;40710;51.120;13.136;2023-01-19T11:43:12;14.03;;;13.97;;
54328;SDS011;40710;51.120;13.136;2023-01-19T11:45:37;15.09;;;14.85;;
54328;SDS011;40710;51.120;13.136;2023-01-19T11:48:03;14.89;;;14.69;;
54328;SDS011;40710;51.120;13.136;2023-01-19T11:50:30;14.96;;;14.77;;
54328;SDS011;40710;51.120;13.136;2023-01-19T11:58:30;14.53;;;14.10;;
54328;SDS011;40710;51.120;13.136;2023-01-19T12:03:39;14.91;;;14.53;;
54328;SDS011;40710;51.120;13.136;2023-01-19T12:06:28;14.81;;;14.36;;
54328;SDS011;40710;51.120;13.136;2023-01-19T12:09:01;14.85;;;14.46;;
54328;SDS011;40710;51.120;13.136;2023-01-19T12:11:37;14.46;;;14.08;;
54328;SDS011;40710;51.120;13.136;2023-01-19T12:14:14;14.55;;;14.13;;
54328;SDS011;40710;51.120;13.136;2023-01-19T12:16:47;14.76;;;14.37;;
54328;SDS011;40710;51.120;13.136;2023-01-19T12:19:17;15.51;;;15.08;;
54328;SDS011;40710;51.120;13.136;2023-01-19T12:21:47;14.66;;;14.55;;
54328;SDS011;40710;51.120;13.136;2023-01-19T12:24:17;15.32;;;15.01;;
54328;SDS011;40710;51.120;13.136;2023-01-19T12:26:59;16.22;;;15.77;;
54328;SDS011;40710;51.120;13.136;2023-01-19T12:29:30;15.97;;;15.60;;
54328;SDS011;40710;51.120;13.136;2023-01-19T12:34:39;15.82;;;15.31;;
54328;SDS011;40710;51.120;13.136;2023-01-19T12:37:05;17.85;;;17.20;;
54328;SDS011;40710;51.120;13.136;2023-01-19T12:39:49;16.45;;;15.98;;
54328;SDS011;40710;51.120;13.136;2023-01-19T12:42:14;17.31;;;16.75;;
54328;SDS011;40710;51.120;13.136;2023-01-19T12:44:40;16.28;;;15.74;;
54328;SDS011;40710;51.120;13.136;2023-01-19T12:49:40;15.01;;;14.49;;
54328;SDS011;40710;51.120;13.136;2023-01-19T13:00:40;19.14;;;18.12;;
54328;SDS011;40710;51.120;13.136;2023-01-19T13:13:21;15.31;;;14.77;;
54328;SDS011;40710;51.120;13.136;2023-01-19T13:15:51;15.77;;;15.14;;
54328;SDS011;40710;51.120;13.136;2023-01-19T13:18:18;14.54;;;14.13;;
54328;SDS011;40710;51.120;13.136;2023-01-19T13:20:57;15.18;;;14.78;;
54328;SDS011;40710;51.120;13.136;2023-01-19T13:23:25;15.59;;;15.25;;
54328;SDS011;40710;51.120;13.136;2023-01-19T13:26:18;15.32;;;14.90;;
54328;SDS011;40710;51.120;13.136;2023-01-19T13:28:49;15.51;;;15.22;;
54328;SDS011;40710;51.120;13.136;2023-01-19T13:31:18;15.78;;;15.31;;
54328;SDS011;40710;51.120;13.136;2023-01-19T13:33:50;17.33;;;16.82;;
54328;SDS011;40710;51.120;13.136;2023-01-19T13:36:23;16.67;;;16.15;;
54328;SDS011;40710;51.120;13.136;2023-01-19T13:38:52;16.34;;;15.98;;
54328;SDS011;40710;51.120;13.136;2023-01-19T13:41:21;16.27;;;15.77;;
54328;SDS011;40710;51.120;13.136;2023-01-19T13:43:53;16.14;;;15.64;;
54328;SDS011;40710;51.120;13.136;2023-01-19T13:46:24;15.78;;;15.25;;
54328;SDS011;40710;51.120;13.136;2023-01-19T13:48:55;15.77;;;15.15;;
54328;SDS011;40710;51.120;13.136;2023-01-19T13:51:24;15.69;;;15.08;;
54328;SDS011;40710;51.120;13.136;2023-01-19T13:53:52;16.04;;;15.46;;
54328;SDS011;40710;51.120;13.136;2023-01-19T13:56:19;17.40;;;16.87;;
54328;SDS011;40710;51.120;13.136;2023-01-19T13:59:05;16.31;;;15.66;;
54328;SDS011;40710;51.120;13.136;2023-01-19T14:01:35;17.05;;;16.54;;
54328;SDS011;40710;51.120;13.136;2023-01-19T14:04:04;16.96;;;16.52;;
54328;SDS011;40710;51.120;13.136;2023-01-19T14:06:31;16.92;;;16.48;;
54328;SDS011;40710;51.120;13.136;2023-01-19T14:09:05;16.89;;;16.37;;
54328;SDS011;40710;51.120;13.136;2023-01-19T14:11:31;16.28;;;15.71;;
54328;SDS011;40710;51.120;13.136;2023-01-19T14:13:57;16.42;;;15.82;;
54328;SDS011;40710;51.120;13.136;2023-01-19T14:16:21;14.95;;;14.70;;
54328;SDS011;40710;51.120;13.136;2023-01-19T14:18:57;14.47;;;14.13;;
54328;SDS011;40710;51.120;13.136;2023-01-19T14:21:23;14.60;;;14.27;;
54328;SDS011;40710;51.120;13.136;2023-01-19T14:24:04;14.81;;;14.38;;
54328;SDS011;40710;51.120;13.136;2023-01-19T14:26:51;29.66;;;28.29;;
54328;SDS011;40710;51.120;13.136;2023-01-19T14:31:48;13.85;;;13.41;;
54328;SDS011;40710;51.120;13.136;2023-01-19T14:34:29;14.19;;;13.71;;
54328;SDS011;40710;51.120;13.136;2023-01-19T14:36:53;13.91;;;13.45;;
54328;SDS011;40710;51.120;13.136;2023-01-19T14:39:20;13.18;;;12.98;;
54328;SDS011;40710;51.120;13.136;2023-01-19T14:41:47;13.12;;;12.96;;
54328;SDS011;40710;51.120;13.136;2023-01-19T14:44:16;12.93;;;12.65;;
54328;SDS011;40710;51.120;13.136;2023-01-19T14:46:47;13.75;;;13.24;;
54328;SDS011;40710;51.120;13.136;2023-01-19T14:49:15;14.00;;;13.71;;
54328;SDS011;40710;51.120;13.136;2023-01-19T14:51:44;14.29;;;14.03;;
54328;SDS011;40710;51.120;13.136;2023-01-19T14:54:16;13.78;;;13.55;;
54328;SDS011;40710;51.120;13.136;2023-01-19T14:56:48;14.31;;;13.93;;
54328;SDS011;40710;51.120;13.136;2023-01-19T14:59:16;13.87;;;13.67;;
54328;SDS011;40710;51.120;13.136;2023-01-19T15:01:41;14.35;;;14.00;;
54328;SDS011;40710;51.120;13.136;2023-01-19T15:04:05;13.66;;;13.33;;
54328;SDS011;40710;51.120;13.136;2023-01-19T15:06:30;13.78;;;13.42;;
54328;SDS011;40710;51.120;13.136;2023-01-19T15:08:57;13.25;;;13.02;;
54328;SDS011;40710;51.120;13.136;2023-01-19T15:11:23;14.11;;;13.90;;
54328;SDS011;40710;51.120;13.136;2023-01-19T15:13:52;14.34;;;13.90;;
54328;SDS011;40710;51.120;13.136;2023-01-19T15:16:18;13.63;;;13.39;;
54328;SDS011;40710;51.120;13.136;2023-01-19T15:18:43;13.65;;;13.64;;